Time;durP1;ratioP1;P1;durP2;ratioP2;P2;SDS_P1;SDS_P2;PMS_P1;PMS_P2;Temp;Humidity;BMP_temperature;BMP_pressure;BME280_temperature;BME280_humidity;BME280_pressure;Samples;Min_cycle;Max_cycle;Signal;HPM_P1;HPM_P2
2021/03/20 00:00:51;;;;;;;10.43;5.28;;;3.70;83.90;;;;;;5076822;28;20029;-78
2021/03/20 00:03:17;;;;;;;8.90;4.63;;;3.60;83.80;;;;;;5075392;28;20039;-78
2021/03/20 00:05:44;;;;;;;9.93;5.37;;;3.60;83.60;;;;;;5075416;28;20024;-78
2021/03/20 00:08:11;;;;;;;9.77;4.83;;;3.60;83.80;;;;;;5075106;28;20012;-78
2021/03/20 00:10:38;;;;;;;9.23;4.50;;;3.60;83.50;;;;;;5076358;28;20021;-78
2021/03/20 00:13:04;;;;;;;11.83;5.10;;;3.60;83.70;;;;;;5076301;28;20024;-78
2021/03/20 00:15:30;;;;;;;8.70;5.13;;;3.60;83.90;;;;;;5075079;28;20040;-78
2021/03/20 00:17:56;;;;;;;10.40;5.47;;;3.60;83.90;;;;;;5076467;28;20396;-78
2021/03/20 00:20:29;;;;;;;11.43;5.27;;;3.60;83.50;;;;;;5075033;28;20033;-78
2021/03/20 00:22:55;;;;;;;9.30;4.70;;;3.60;83.50;;;;;;5076156;28;20028;-78
2021/03/20 00:25:21;;;;;;;9.90;4.97;;;3.60;83.40;;;;;;5076095;28;20017;-78
2021/03/20 00:27:47;;;;;;;9.23;5.00;;;3.60;83.30;;;;;;5074796;28;20536;-78
2021/03/20 00:30:14;;;;;;;10.17;5.23;;;3.60;83.70;;;;;;5076124;28;20106;-78
2021/03/20 00:32:40;;;;;;;11.90;5.73;;;3.60;83.90;;;;;;5076099;28;20379;-78
2021/03/20 00:35:08;;;;;;;10.27;5.00;;;3.60;84.50;;;;;;5074738;28;20024;-78
2021/03/20 00:37:34;;;;;;;11.37;5.47;;;3.60;84.30;;;;;;5074495;28;20024;-78
2021/03/20 00:39:59;;;;;;;11.30;6.07;;;3.60;84.70;;;;;;5074985;28;20020;-78
2021/03/20 00:42:25;;;;;;;9.23;5.40;;;3.70;84.70;;;;;;5074515;28;20029;-78
2021/03/20 00:44:51;;;;;;;12.07;5.60;;;3.70;84.90;;;;;;5075443;28;20480;-78
2021/03/20 00:47:17;;;;;;;11.40;4.83;;;3.70;83.90;;;;;;5076008;28;20035;-78
2021/03/20 00:49:43;;;;;;;11.47;5.57;;;3.70;83.60;;;;;;5075769;28;20074;-78
2021/03/20 00:52:08;;;;;;;10.77;4.93;;;3.70;83.60;;;;;;5075946;28;20059;-78
2021/03/20 00:54:34;;;;;;;9.30;4.80;;;3.70;83.60;;;;;;5074515;28;20043;-77
2021/03/20 00:56:59;;;;;;;8.97;5.50;;;3.70;83.60;;;;;;5075661;28;20111;-77
2021/03/20 00:59:25;;;;;;;10.07;5.40;;;3.70;83.80;;;;;;5075792;28;20083;-77
2021/03/20 01:01:51;;;;;;;9.70;5.13;;;3.70;83.70;;;;;;5074141;28;20024;-77
2021/03/20 01:04:17;;;;;;;9.83;5.03;;;3.70;83.50;;;;;;5075802;28;20029;-77
2021/03/20 01:06:43;;;;;;;10.10;4.97;;;3.70;83.30;;;;;;5074609;28;20029;-77
2021/03/20 01:09:08;;;;;;;13.03;5.40;;;3.60;83.10;;;;;;5074088;28;20036;-77
2021/03/20 01:11:34;;;;;;;10.60;4.77;;;3.60;83.30;;;;;;5074320;28;20087;-77
2021/03/20 01:14:00;;;;;;;12.07;6.00;;;3.50;82.90;;;;;;5074135;28;20032;-77
2021/03/20 01:16:27;;;;;;;9.67;4.60;;;3.50;83.20;;;;;;5073892;28;20024;-78
2021/03/20 01:18:53;;;;;;;7.97;4.60;;;3.50;83.10;;;;;;5074056;28;20033;-77
2021/03/20 01:21:20;;;;;;;8.03;4.83;;;3.50;82.80;;;;;;5073775;28;20033;-78
2021/03/20 01:23:45;;;;;;;8.87;5.10;;;3.40;83.10;;;;;;5074042;28;20337;-78
2021/03/20 01:26:11;;;;;;;9.57;5.60;;;3.40;82.80;;;;;;5027894;28;20031;-77
2021/03/20 01:28:39;;;;;;;11.60;5.30;;;3.30;83.00;;;;;;5055048;28;20021;-77
2021/03/20 01:31:06;;;;;;;8.83;4.87;;;3.30;82.80;;;;;;5053637;28;20108;-78
2021/03/20 01:33:32;;;;;;;8.87;5.00;;;3.30;83.10;;;;;;5055209;28;20033;-77
2021/03/20 01:35:58;;;;;;;10.23;4.93;;;3.20;83.30;;;;;;5053717;28;20040;-77
2021/03/20 01:38:24;;;;;;;9.70;4.87;;;3.20;83.20;;;;;;5053668;28;20040;-77
2021/03/20 01:40:51;;;;;;;12.83;5.70;;;3.20;83.40;;;;;;5054703;28;20029;-77
2021/03/20 01:43:20;;;;;;;10.30;4.97;;;3.30;83.40;;;;;;5053717;28;20083;-78
2021/03/20 01:45:46;;;;;;;11.97;5.43;;;3.10;83.30;;;;;;5054440;28;20044;-78
2021/03/20 01:48:23;;;;;;;11.73;5.77;;;3.10;83.70;;;;;;5037081;28;20025;-77
2021/03/20 01:50:54;;;;;;;12.00;5.90;;;3.10;83.70;;;;;;5054573;28;20429;-77
2021/03/20 01:53:39;;;;;;;8.20;4.40;;;3.10;83.20;;;;;;5054592;28;20495;-78
2021/03/20 01:56:11;;;;;;;7.87;4.17;;;3.00;82.90;;;;;;5052353;28;20027;-78
2021/03/20 01:58:39;;;;;;;7.40;4.30;;;3.00;82.90;;;;;;5054571;28;20465;-78
2021/03/20 02:01:12;;;;;;;11.30;4.53;;;2.90;82.80;;;;;;5054465;28;20491;-77
2021/03/20 02:03:38;;;;;;;13.30;5.17;;;2.90;82.80;;;;;;5054369;28;20021;-78
2021/03/20 02:06:05;;;;;;;7.53;4.07;;;2.80;82.60;;;;;;5036728;28;20029;-78
2021/03/20 02:08:31;;;;;;;6.67;3.97;;;2.80;82.60;;;;;;5054195;28;20489;-78
2021/03/20 02:11:07;;;;;;;8.40;4.03;;;2.70;82.60;;;;;;5054227;28;20048;-77
2021/03/20 02:13:45;;;;;;;7.67;3.87;;;2.70;82.50;;;;;;5054276;28;20103;-77
2021/03/20 02:16:25;;;;;;;7.43;4.33;;;2.80;82.50;;;;;;5054121;28;20495;-78
2021/03/20 02:19:19;;;;;;;10.43;4.13;;;2.70;82.60;;;;;;5054217;28;20025;-77
2021/03/20 02:21:55;;;;;;;10.07;3.87;;;2.70;82.30;;;;;;5054399;28;20587;-77
2021/03/20 02:25:05;;;;;;;10.13;4.37;;;2.70;82.30;;;;;;5053973;28;20384;-78
2021/03/20 02:27:59;;;;;;;10.13;4.33;;;2.60;82.20;;;;;;5052652;28;20047;-78
2021/03/20 02:30:36;;;;;;;6.77;3.33;;;2.70;82.20;;;;;;5053753;28;20384;-77
2021/03/20 02:33:02;;;;;;;8.80;3.67;;;2.60;82.10;;;;;;5052788;28;20025;-78
2021/03/20 02:35:54;;;;;;;7.00;3.53;;;2.60;82.00;;;;;;5053774;28;20082;-77
2021/03/20 02:38:53;;;;;;;7.33;3.40;;;2.50;81.80;;;;;;5051148;28;20123;-78
2021/03/20 02:41:35;;;;;;;7.07;3.67;;;2.50;81.80;;;;;;5053676;28;20104;-77
2021/03/20 02:44:17;;;;;;;6.97;3.70;;;2.50;81.80;;;;;;5052378;28;20021;-77
2021/03/20 02:46:51;;;;;;;7.67;3.83;;;2.50;81.80;;;;;;5052711;28;20092;-78
2021/03/20 02:49:25;;;;;;;6.30;3.42;;;2.40;81.80;;;;;;5053627;28;20028;-77
2021/03/20 02:51:59;;;;;;;9.70;3.72;;;2.50;81.90;;;;;;5052328;28;20033;-77
2021/03/20 02:54:52;;;;;;;9.10;3.70;;;2.40;81.60;;;;;;5053799;28;20063;-77
2021/03/20 02:57:29;;;;;;;7.53;3.63;;;2.40;81.70;;;;;;5052496;28;20518;-77
2021/03/20 03:00:04;;;;;;;6.03;3.40;;;2.40;81.70;;;;;;5053359;28;20029;-77
2021/03/20 03:02:32;;;;;;;9.20;3.80;;;2.30;81.50;;;;;;5053252;28;20031;-77
2021/03/20 03:05:09;;;;;;;8.07;3.97;;;2.30;81.90;;;;;;5035691;28;20058;-77
2021/03/20 03:07:42;;;;;;;7.87;3.93;;;2.30;81.60;;;;;;5052237;28;20582;-78
2021/03/20 03:10:18;;;;;;;7.20;4.10;;;2.30;81.60;;;;;;5050921;28;20017;-77
2021/03/20 03:12:55;;;;;;;7.07;3.97;;;2.20;81.50;;;;;;5051474;28;20032;-77
2021/03/20 03:15:26;;;;;;;8.87;3.63;;;2.20;81.60;;;;;;5051754;28;20052;-77
2021/03/20 03:18:15;;;;;;;7.53;3.80;;;2.20;81.50;;;;;;5052763;28;20407;-77
2021/03/20 03:20:51;;;;;;;7.63;3.60;;;2.10;81.30;;;;;;5052871;28;20041;-77
2021/03/20 03:23:23;;;;;;;6.80;3.63;;;2.10;81.30;;;;;;5051540;28;20025;-77
2021/03/20 03:26:02;;;;;;;6.03;3.43;;;2.10;81.30;;;;;;5051564;28;20021;-74
2021/03/20 03:28:29;;;;;;;10.53;3.80;;;2.00;81.30;;;;;;5053337;28;20092;-74
2021/03/20 03:30:58;;;;;;;7.77;3.63;;;1.90;81.30;;;;;;5051842;28;20120;-74
2021/03/20 03:33:36;;;;;;;7.97;3.87;;;2.00;81.40;;;;;;5051797;28;20033;-78
2021/03/20 03:36:07;;;;;;;7.37;3.67;;;2.00;81.60;;;;;;5053037;28;20028;-74
2021/03/20 03:38:55;;;;;;;8.47;4.53;;;1.90;81.60;;;;;;5053005;28;20033;-74
2021/03/20 03:41:32;;;;;;;7.87;3.50;;;1.90;81.60;;;;;;5051893;28;20029;-74
2021/03/20 03:43:59;;;;;;;11.60;5.07;;;1.80;81.50;;;;;;5051787;28;20017;-74
2021/03/20 03:46:29;;;;;;;6.93;3.90;;;1.80;81.60;;;;;;5051425;28;20037;-74
2021/03/20 03:48:57;;;;;;;8.37;4.47;;;1.80;81.70;;;;;;5051724;28;20036;-74
2021/03/20 03:51:24;;;;;;;10.20;4.33;;;1.70;82.00;;;;;;5051865;28;20033;-73
2021/03/20 03:53:51;;;;;;;7.57;4.23;;;1.70;81.90;;;;;;5034892;28;20046;-74
2021/03/20 03:56:43;;;;;;;8.53;4.93;;;1.70;82.20;;;;;;5051635;28;20068;-74
2021/03/20 03:59:22;;;;;;;8.47;5.10;;;1.60;82.00;;;;;;5051624;28;20052;-73
2021/03/20 04:01:56;;;;;;;10.70;4.60;;;1.60;82.10;;;;;;5052726;28;20029;-74
2021/03/20 04:04:40;;;;;;;12.23;5.45;;;1.60;82.60;;;;;;5051176;28;20074;-73
2021/03/20 04:07:17;;;;;;;9.63;5.28;;;1.50;82.60;;;;;;5052412;28;20029;-74
2021/03/20 04:10:00;;;;;;;9.43;5.20;;;1.50;82.40;;;;;;5050964;28;20111;-74
2021/03/20 04:13:14;;;;;;;13.93;5.00;;;1.50;82.40;;;;;;5052573;28;20093;-74
2021/03/20 04:15:55;;;;;;;7.80;4.50;;;1.40;82.50;;;;;;5046575;28;20405;-74
2021/03/20 04:18:34;;;;;;;8.40;4.50;;;1.40;82.50;;;;;;5051004;28;20025;-75
2021/03/20 04:21:27;;;;;;;9.93;5.03;;;1.40;82.50;;;;;;5056067;28;20048;-74
2021/03/20 04:24:26;;;;;;;10.23;5.30;;;1.30;82.50;;;;;;5055117;28;20136;-75
2021/03/20 04:27:02;;;;;;;9.33;4.87;;;1.30;82.70;;;;;;5056581;28;20025;-74
2021/03/20 04:29:38;;;;;;;10.27;4.90;;;1.30;82.70;;;;;;5054770;28;20022;-74
2021/03/20 04:32:11;;;;;;;10.07;5.13;;;1.20;82.70;;;;;;5054822;28;20287;-74
2021/03/20 04:34:46;;;;;;;8.63;5.07;;;1.20;82.80;;;;;;5054958;28;20078;-74
2021/03/20 04:37:21;;;;;;;9.73;4.60;;;1.20;82.90;;;;;;5054779;28;20025;-74
2021/03/20 04:39:51;;;;;;;8.57;4.43;;;1.20;83.10;;;;;;5055921;28;20029;-74
2021/03/20 04:42:24;;;;;;;9.77;5.10;;;1.20;83.20;;;;;;5054689;28;20063;-74
2021/03/20 04:44:50;;;;;;;9.33;5.27;;;1.20;83.30;;;;;;5055926;28;20449;-74
2021/03/20 04:47:25;;;;;;;11.10;4.60;;;1.20;83.30;;;;;;5054571;28;20056;-74
2021/03/20 04:50:03;;;;;;;11.13;5.20;;;1.20;83.10;;;;;;5055989;28;20029;-74
2021/03/20 04:52:30;;;;;;;9.10;5.13;;;1.10;83.00;;;;;;5055933;28;20028;-74
2021/03/20 04:54:58;;;;;;;8.80;4.57;;;1.10;83.00;;;;;;5054123;28;20029;-73
2021/03/20 04:57:34;;;;;;;11.90;4.87;;;1.10;83.10;;;;;;5054348;28;20049;-74
2021/03/20 05:00:29;;;;;;;8.43;4.57;;;1.00;83.10;;;;;;5055921;28;20291;-74
2021/03/20 05:03:22;;;;;;;7.32;4.10;;;1.00;83.20;;;;;;5054450;28;20029;-74
2021/03/20 05:05:55;;;;;;;10.80;4.73;;;1.00;83.20;;;;;;5055096;28;20025;-74
2021/03/20 05:08:37;;;;;;;9.47;4.37;;;1.00;83.20;;;;;;5053501;28;20111;-74
2021/03/20 05:11:40;;;;;;;8.97;4.40;;;0.90;83.30;;;;;;5054018;28;20267;-74
2021/03/20 05:14:30;;;;;;;8.87;4.87;;;0.90;83.40;;;;;;5054986;28;20037;-74
2021/03/20 05:16:59;;;;;;;9.03;4.50;;;0.90;83.30;;;;;;5054910;28;20281;-74
2021/03/20 05:19:27;;;;;;;10.33;4.93;;;0.90;83.30;;;;;;5053871;28;20279;-74
2021/03/20 05:21:54;;;;;;;9.33;4.73;;;0.80;83.20;;;;;;5054040;28;20323;-74
2021/03/20 05:24:32;;;;;;;11.17;4.80;;;0.80;84.00;;;;;;5053912;28;20021;-74
2021/03/20 05:26:59;;;;;;;9.00;4.57;;;0.80;83.40;;;;;;5055367;28;20112;-74
2021/03/20 05:29:27;;;;;;;10.00;5.03;;;0.80;83.50;;;;;;5055082;28;20275;-74
2021/03/20 05:31:53;;;;;;;7.70;4.00;;;0.70;83.50;;;;;;5052562;28;20021;-74
2021/03/20 05:34:29;;;;;;;9.90;4.97;;;0.90;83.70;;;;;;5036944;28;20317;-77
2021/03/20 05:36:55;;;;;;;7.90;4.50;;;0.70;83.70;;;;;;5053553;28;20682;-77
2021/03/20 05:39:22;;;;;;;10.90;4.73;;;0.70;83.70;;;;;;5054724;28;20060;-77
2021/03/20 05:42:14;;;;;;;8.60;4.43;;;0.70;83.80;;;;;;5036685;28;20292;-77
2021/03/20 05:45:06;;;;;;;9.60;4.20;;;0.70;83.90;;;;;;5053293;28;20538;-77
2021/03/20 05:48:08;;;;;;;9.10;4.10;;;0.70;83.90;;;;;;5054868;28;20338;-77
2021/03/20 05:50:55;;;;;;;9.10;4.40;;;0.70;83.90;;;;;;5054716;28;20496;-78
2021/03/20 05:53:40;;;;;;;9.07;3.93;;;0.70;83.90;;;;;;5054608;28;20272;-77
2021/03/20 05:56:37;;;;;;;10.00;4.37;;;0.70;83.90;;;;;;5053182;28;20101;-77
2021/03/20 05:59:12;;;;;;;10.90;4.70;;;0.70;83.90;;;;;;5053146;28;20311;-74
2021/03/20 06:02:05;;;;;;;9.40;4.37;;;0.70;83.90;;;;;;5054222;28;20033;-74
2021/03/20 06:04:35;;;;;;;8.17;3.93;;;0.70;84.50;;;;;;5053105;28;20281;-74
2021/03/20 06:07:07;;;;;;;9.50;4.70;;;0.60;84.00;;;;;;5054080;28;20275;-74
2021/03/20 06:09:57;;;;;;;9.10;4.83;;;0.70;84.10;;;;;;5054019;28;20108;-74
2021/03/20 06:12:41;;;;;;;10.67;4.90;;;0.70;84.20;;;;;;5054206;28;20025;-74
2021/03/20 06:15:18;;;;;;;13.87;5.40;;;0.70;84.10;;;;;;5052632;28;20279;-74
2021/03/20 06:18:21;;;;;;;10.07;5.63;;;0.70;84.20;;;;;;5054252;28;20354;-73
2021/03/20 06:21:42;;;;;;;9.10;4.67;;;0.80;84.30;;;;;;5054136;28;20032;-73
2021/03/20 06:24:25;;;;;;;9.30;4.87;;;0.70;84.30;;;;;;5069912;28;20686;-75
2021/03/20 06:26:52;;;;;;;9.63;4.75;;;0.80;84.50;;;;;;5054040;28;20388;-73
2021/03/20 06:29:34;;;;;;;10.33;4.57;;;0.80;84.50;;;;;;5036007;28;20033;-73
2021/03/20 06:32:24;;;;;;;10.03;4.27;;;0.80;85.20;;;;;;5061074;28;20017;-74
2021/03/20 06:35:08;;;;;;;9.63;4.93;;;0.90;84.70;;;;;;5058828;28;20020;-74
2021/03/20 06:37:41;;;;;;;12.32;5.30;;;0.90;84.70;;;;;;5072012;28;20576;-74
2021/03/20 06:40:25;;;;;;;6.03;3.47;;;0.90;84.70;;;;;;5071533;28;20013;-74
2021/03/20 06:42:52;;;;;;;8.00;4.30;;;1.00;84.80;;;;;;5057257;28;20381;-75
2021/03/20 06:45:27;;;;;;;8.37;4.40;;;1.00;84.80;;;;;;5072069;28;20079;-75
2021/03/20 06:48:19;;;;;;;9.60;5.07;;;1.10;84.90;;;;;;5069346;28;20058;-76
2021/03/20 06:50:52;;;;;;;9.27;4.90;;;1.10;84.90;;;;;;5073109;28;20024;-76
2021/03/20 06:53:24;;;;;;;11.50;4.70;;;1.10;84.90;;;;;;5073263;28;20400;-73
2021/03/20 06:55:51;;;;;;;12.07;4.37;;;1.20;85.00;;;;;;5073665;28;20020;-74
2021/03/20 06:58:22;;;;;;;10.70;5.43;;;1.20;84.90;;;;;;5055412;28;20021;-74
2021/03/20 07:00:48;;;;;;;8.70;4.77;;;1.30;85.00;;;;;;5072063;28;20017;-74
2021/03/20 07:03:39;;;;;;;9.53;5.07;;;1.30;85.00;;;;;;5071901;28;20077;-74
2021/03/20 07:06:20;;;;;;;8.53;4.37;;;1.30;84.90;;;;;;5072545;28;20130;-75
2021/03/20 07:08:50;;;;;;;14.00;5.30;;;1.40;85.00;;;;;;5072421;28;20043;-76
2021/03/20 07:11:28;;;;;;;7.90;4.60;;;1.40;85.00;;;;;;5059746;28;20092;-76
2021/03/20 07:13:58;;;;;;;8.80;3.77;;;1.50;85.00;;;;;;5055594;28;20066;-76
2021/03/20 07:16:25;;;;;;;6.83;3.67;;;1.50;84.90;;;;;;5059235;28;20147;-76
2021/03/20 07:19:13;;;;;;;7.37;3.63;;;1.60;84.90;;;;;;5057455;28;20507;-74
2021/03/20 07:21:41;;;;;;;9.07;4.00;;;1.60;84.80;;;;;;5052539;28;20463;-74
2021/03/20 07:24:12;;;;;;;5.33;3.13;;;1.70;84.70;;;;;;5057632;28;20032;-74
2021/03/20 07:26:57;;;;;;;8.30;4.30;;;1.80;84.60;;;;;;5056810;28;20066;-75
2021/03/20 07:29:38;;;;;;;;;;;1.90;84.40;;;;;;5063512;28;20400;-75
2021/03/20 07:32:04;;;;;;;6.00;3.20;;;1.90;84.20;;;;;;5052064;28;20273;-74
2021/03/20 07:34:33;;;;;;;7.40;3.50;;;2.00;84.00;;;;;;5058531;28;20021;-74
2021/03/20 07:37:27;;;;;;;7.60;3.33;;;2.00;83.80;;;;;;5056168;28;20032;-75
2021/03/20 07:39:55;;;;;;;6.13;2.80;;;2.10;83.60;;;;;;5051961;28;20029;-75
2021/03/20 07:42:41;;;;;;;7.60;2.63;;;2.10;83.30;;;;;;5052737;28;20029;-74
2021/03/20 07:45:19;;;;;;;9.43;3.13;;;2.20;83.10;;;;;;5052842;28;20025;-75
2021/03/20 07:47:53;;;;;;;9.60;2.30;;;2.20;82.70;;;;;;5051494;28;20037;-73
2021/03/20 07:50:19;;;;;;;6.73;2.90;;;2.30;82.50;;;;;;5051512;28;20469;-75
2021/03/20 07:53:13;;;;;;;6.37;2.70;;;2.40;82.10;;;;;;5052673;28;20104;-73
2021/03/20 07:56:25;;;;;;;6.17;2.47;;;2.50;81.80;;;;;;5054810;28;20021;-75
2021/03/20 07:59:20;;;;;;;4.93;2.43;;;2.60;81.50;;;;;;5055540;28;20025;-74
2021/03/20 08:01:53;;;;;;;5.00;2.30;;;2.60;81.10;;;;;;5055479;28;20473;-75
2021/03/20 08:04:58;;;;;;;6.17;2.80;;;2.70;80.60;;;;;;5056711;28;20025;-75
2021/03/20 08:07:47;;;;;;;7.33;2.83;;;2.80;80.50;;;;;;5056445;28;20032;-74
2021/03/20 08:10:13;;;;;;;6.97;2.97;;;2.90;80.10;;;;;;5055143;28;20023;-74
2021/03/20 08:13:09;;;;;;;7.40;3.03;;;2.90;79.60;;;;;;5056669;28;20017;-72
2021/03/20 08:15:38;;;;;;;7.47;3.20;;;3.00;79.60;;;;;;5055324;28;20128;-72
2021/03/20 08:18:16;;;;;;;7.50;3.73;;;3.00;79.50;;;;;;5056214;28;20108;-72
2021/03/20 08:20:59;;;;;;;8.97;3.73;;;3.10;79.20;;;;;;5056202;28;20082;-72
2021/03/20 08:23:43;;;;;;;7.70;3.57;;;3.20;78.80;;;;;;5058230;28;20033;-73
2021/03/20 08:26:27;;;;;;;4.78;2.50;;;3.30;78.70;;;;;;5064670;28;20041;-75
2021/03/20 08:29:01;;;;;;;6.57;3.15;;;3.40;78.80;;;;;;5068278;28;20589;-73
2021/03/20 08:32:08;;;;;;;7.22;3.30;;;3.50;78.80;;;;;;5062661;28;20017;-74
2021/03/20 08:35:12;;;;;;;7.73;2.47;;;3.60;78.70;;;;;;5056046;28;20522;-73
2021/03/20 08:38:18;;;;;;;7.70;2.87;;;3.70;78.60;;;;;;5055888;28;20448;-73
2021/03/20 08:41:11;;;;;;;8.83;3.10;;;3.80;78.60;;;;;;5067465;28;20033;-72
2021/03/20 08:44:22;;;;;;;5.70;2.87;;;4.00;78.70;;;;;;5074679;28;20032;-73
2021/03/20 08:47:02;;;;;;;6.00;3.10;;;4.30;78.50;;;;;;5074359;28;20044;-74
2021/03/20 08:50:00;;;;;;;8.07;3.40;;;4.40;78.30;;;;;;5076011;28;20104;-73
2021/03/20 08:52:39;;;;;;;5.83;2.70;;;4.70;78.10;;;;;;5074649;28;20056;-73
2021/03/20 08:55:26;;;;;;;5.43;2.67;;;4.90;77.90;;;;;;5062727;28;20048;-73
2021/03/20 08:58:06;;;;;;;6.27;2.70;;;5.00;77.70;;;;;;5063432;28;20056;-73
2021/03/20 09:00:54;;;;;;;8.87;3.50;;;5.10;77.10;;;;;;5060978;28;20029;-73
2021/03/20 09:03:27;;;;;;;7.67;3.23;;;5.30;76.40;;;;;;5058731;28;20056;-73
2021/03/20 09:06:01;;;;;;;8.40;3.30;;;5.40;75.50;;;;;;5066168;28;20017;-73
2021/03/20 09:08:46;;;;;;;6.22;3.20;;;5.50;75.30;;;;;;5075761;28;20025;-73
2021/03/20 09:11:37;;;;;;;7.50;3.47;;;5.60;74.60;;;;;;5057224;28;20514;-73
2021/03/20 09:14:27;;;;;;;5.73;2.83;;;5.60;74.20;;;;;;5075076;28;20465;-73
2021/03/20 09:17:07;;;;;;;5.20;2.90;;;5.70;73.80;;;;;;5073931;28;20021;-74
2021/03/20 09:19:40;;;;;;;5.37;3.00;;;5.70;72.70;;;;;;5074087;28;20468;-73
2021/03/20 09:22:12;;;;;;;5.77;3.00;;;5.70;72.30;;;;;;5073589;28;20112;-74
2021/03/20 09:24:55;;;;;;;6.73;2.93;;;5.80;72.30;;;;;;5073943;28;20024;-74
2021/03/20 09:27:58;;;;;;;8.23;3.00;;;5.80;72.00;;;;;;5075285;28;20024;-74
2021/03/20 09:30:35;;;;;;;5.60;2.90;;;5.80;71.10;;;;;;5073869;28;20028;-74
2021/03/20 09:33:20;;;;;;;5.97;2.93;;;5.80;70.70;;;;;;5075174;28;20032;-74
2021/03/20 09:35:52;;;;;;;6.13;2.60;;;5.90;70.70;;;;;;5074640;28;20029;-75
2021/03/20 09:38:36;;;;;;;5.83;2.60;;;5.90;70.00;;;;;;5073416;28;20039;-74
2021/03/20 09:41:02;;;;;;;5.10;2.28;;;5.90;69.30;;;;;;5073381;28;20111;-74
2021/03/20 09:43:39;;;;;;;5.77;2.20;;;6.00;68.60;;;;;;5069961;28;20111;-74
2021/03/20 09:46:38;;;;;;;6.27;1.90;;;6.00;68.20;;;;;;5059610;28;20041;-74
2021/03/20 09:49:24;;;;;;;6.70;2.30;;;6.00;67.80;;;;;;5054527;28;20039;-73
2021/03/20 09:51:50;;;;;;;5.37;2.27;;;6.10;67.70;;;;;;5054395;28;20086;-74
2021/03/20 09:54:28;;;;;;;4.67;1.90;;;6.10;66.30;;;;;;5069906;28;20036;-74
2021/03/20 09:56:54;;;;;;;4.27;1.90;;;6.10;66.60;;;;;;5067993;28;20020;-74
2021/03/20 09:59:43;;;;;;;6.50;2.50;;;6.20;65.60;;;;;;5074241;28;20032;-74
2021/03/20 10:02:14;;;;;;;7.77;2.50;;;6.30;65.10;;;;;;5073021;28;20345;-74
2021/03/20 10:04:55;;;;;;;5.57;2.43;;;6.50;65.00;;;;;;5073361;28;20036;-74
2021/03/20 10:07:24;;;;;;;4.53;1.97;;;6.50;64.20;;;;;;5073096;28;20490;-74
2021/03/20 10:10:11;;;;;;;6.40;2.40;;;6.80;63.80;;;;;;5072506;28;20024;-75
2021/03/20 10:12:40;;;;;;;4.37;2.00;;;7.00;63.70;;;;;;5071505;28;20031;-74
2021/03/20 10:17:56;;;;;;;4.37;2.43;;;7.80;63.90;;;;;;5073007;28;20036;-75
2021/03/20 10:20:24;;;;;;;3.28;1.65;;;8.30;62.90;;;;;;5072799;28;20123;-74
2021/03/20 10:23:01;;;;;;;3.90;1.70;;;8.90;64.40;;;;;;5073830;28;20515;-75
2021/03/20 10:25:30;;;;;;;3.35;1.55;;;9.80;64.20;;;;;;5072753;28;20488;-75
2021/03/20 10:28:00;;;;;;;3.03;1.33;;;10.50;65.70;;;;;;5072857;28;20060;-75
2021/03/20 10:30:37;;;;;;;4.30;1.30;;;11.40;61.90;;;;;;5046796;28;20083;-73
2021/03/20 10:33:14;;;;;;;3.70;1.17;;;12.30;62.10;;;;;;5073986;28;20086;-76
2021/03/20 10:35:40;;;;;;;1.95;0.90;;;13.20;61.00;;;;;;5073798;28;20052;-75
2021/03/20 10:38:22;;;;;;;2.42;0.95;;;14.10;57.30;;;;;;5073595;28;20032;-74
2021/03/20 10:41:10;;;;;;;2.17;1.20;;;14.70;53.80;;;;;;5063068;28;20039;-74
2021/03/20 10:43:44;;;;;;;3.45;1.00;;;15.30;51.50;;;;;;5063851;28;20082;-73
2021/03/20 10:46:19;;;;;;;3.15;1.30;;;15.80;50.80;;;;;;5062749;28;20040;-74
2021/03/20 10:48:45;;;;;;;4.28;1.10;;;16.40;49.50;;;;;;5062851;28;20029;-74
2021/03/20 10:51:11;;;;;;;2.85;0.98;;;17.00;48.30;;;;;;5060182;28;20021;-74
2021/03/20 10:53:51;;;;;;;3.75;1.05;;;17.50;45.60;;;;;;5064215;28;20032;-74
2021/03/20 10:56:32;;;;;;;2.85;0.90;;;17.80;45.40;;;;;;5068813;28;20029;-74
2021/03/20 10:59:00;;;;;;;2.85;1.20;;;18.30;44.90;;;;;;5073390;28;20460;-74
2021/03/20 11:01:34;;;;;;;4.13;1.20;;;18.80;45.10;;;;;;5072245;28;20052;-74
2021/03/20 11:04:00;;;;;;;2.72;1.05;;;19.20;42.70;;;;;;5071163;28;20032;-75
2021/03/20 11:06:27;;;;;;;4.47;1.35;;;19.30;40.90;;;;;;5073044;28;20035;-73
2021/03/20 11:09:15;;;;;;;2.55;1.00;;;19.50;39.00;;;;;;5073421;28;20028;-74
2021/03/20 11:11:42;;;;;;;1.90;1.10;;;19.70;37.40;;;;;;5060666;28;20028;-73
2021/03/20 11:14:20;;;;;;;4.18;1.00;;;19.90;37.90;;;;;;5063880;28;20100;-74
2021/03/20 11:16:54;;;;;;;2.67;1.48;;;20.10;37.30;;;;;;5071256;28;20043;-74
2021/03/20 11:19:40;;;;;;;4.35;0.90;;;20.30;36.40;;;;;;5073537;28;20028;-75
2021/03/20 11:22:26;;;;;;;2.60;1.13;;;20.50;35.40;;;;;;5073133;28;20028;-74
2021/03/20 11:24:55;;;;;;;2.00;0.93;;;20.70;34.80;;;;;;5065620;28;20412;-75
2021/03/20 11:27:31;;;;;;;2.92;0.90;;;20.90;34.90;;;;;;5063124;28;20017;-75
2021/03/20 11:30:16;;;;;;;2.58;0.80;;;21.10;34.50;;;;;;5053188;28;20384;-75
2021/03/20 11:32:45;;;;;;;3.00;1.05;;;21.30;33.90;;;;;;5062887;28;20025;-75
2021/03/20 11:35:32;;;;;;;2.78;0.95;;;21.60;34.00;;;;;;5075767;28;20535;-75
2021/03/20 11:38:02;;;;;;;2.63;1.05;;;21.60;32.00;;;;;;5051839;28;20051;-74
2021/03/20 11:40:38;;;;;;;3.83;1.20;;;21.60;32.30;;;;;;5051509;28;20388;-75
2021/03/20 11:43:07;;;;;;;2.75;1.25;;;21.60;31.30;;;;;;5062903;28;20051;-75
2021/03/20 11:45:36;;;;;;;2.20;1.10;;;21.60;32.30;;;;;;5072493;28;20072;-76
2021/03/20 11:48:36;;;;;;;4.97;1.30;;;21.70;30.90;;;;;;5071314;28;20028;-75
2021/03/20 11:51:04;;;;;;;2.38;1.00;;;21.90;30.40;;;;;;5069435;28;20028;-75
2021/03/20 11:53:35;;;;;;;3.08;1.42;;;22.00;30.80;;;;;;5072819;28;20036;-75
2021/03/20 11:56:01;;;;;;;5.10;1.45;;;22.30;30.10;;;;;;5072882;28;20415;-75
2021/03/20 11:58:33;;;;;;;3.13;1.40;;;22.50;30.50;;;;;;5072650;28;20048;-72
2021/03/20 12:01:20;;;;;;;3.70;1.08;;;22.60;29.90;;;;;;5072645;28;20035;-75
2021/03/20 12:03:47;;;;;;;2.85;1.10;;;22.70;30.20;;;;;;5071929;28;20475;-73
2021/03/20 12:06:16;;;;;;;3.08;1.38;;;22.80;29.80;;;;;;5069922;28;20024;-74
2021/03/20 12:09:02;;;;;;;4.97;1.58;;;22.80;29.20;;;;;;5061006;28;20032;-73
2021/03/20 12:11:52;;;;;;;3.17;1.23;;;22.70;29.20;;;;;;5071484;28;20141;-73
2021/03/20 12:14:32;;;;;;;2.72;1.38;;;22.50;28.90;;;;;;5071843;28;20128;-72
2021/03/20 12:17:14;;;;;;;3.25;1.30;;;22.40;29.30;;;;;;5071399;28;20456;-72
2021/03/20 12:19:57;;;;;;;3.85;1.40;;;22.30;29.50;;;;;;5071115;28;20021;-82
2021/03/20 12:22:50;;;;;;;3.45;1.23;;;22.10;29.50;;;;;;5071251;28;20510;-72
2021/03/20 12:25:28;;;;;;;1.90;0.90;;;21.70;29.90;;;;;;5071813;28;20024;-71
2021/03/20 12:28:13;;;;;;;2.90;1.23;;;21.40;29.80;;;;;;5070928;28;20016;-72
2021/03/20 12:30:39;;;;;;;4.05;1.20;;;21.20;30.10;;;;;;5072114;28;20024;-73
2021/03/20 12:33:11;;;;;;;2.20;1.20;;;21.00;30.00;;;;;;5072108;28;20029;-73
2021/03/20 12:35:45;;;;;;;2.00;1.05;;;20.80;30.00;;;;;;5070693;28;20036;-73
2021/03/20 12:38:28;;;;;;;3.83;1.40;;;20.70;30.00;;;;;;5059738;28;20024;-73
2021/03/20 12:41:02;;;;;;;2.25;1.25;;;20.60;30.50;;;;;;5067952;28;20024;-72
2021/03/20 12:43:31;;;;;;;2.85;1.40;;;20.70;30.80;;;;;;5073045;28;20033;-73
2021/03/20 12:46:00;;;;;;;3.72;1.45;;;20.90;30.70;;;;;;5063884;28;20099;-72
2021/03/20 12:48:26;;;;;;;3.83;1.33;;;20.90;30.30;;;;;;5065339;28;20025;-72
2021/03/20 12:51:05;;;;;;;3.38;1.58;;;20.90;30.60;;;;;;5065330;28;20021;-71
2021/03/20 12:53:31;;;;;;;3.63;1.30;;;21.00;30.60;;;;;;5057007;28;20392;-72
2021/03/20 12:55:56;;;;;;;3.75;1.45;;;21.20;30.70;;;;;;5044268;28;20043;-71
2021/03/20 12:58:22;;;;;;;4.78;1.10;;;21.30;30.60;;;;;;5063684;28;20033;-72
2021/03/20 13:00:48;;;;;;;3.72;1.42;;;21.20;30.20;;;;;;5063892;28;20071;-72
2021/03/20 13:03:13;;;;;;;2.80;1.17;;;21.10;30.20;;;;;;5054423;28;20067;-73
2021/03/20 13:05:43;;;;;;;2.95;1.30;;;21.20;30.30;;;;;;5064470;28;20464;-72
2021/03/20 13:08:09;;;;;;;4.20;1.10;;;21.20;30.00;;;;;;5066031;28;20023;-72
2021/03/20 13:10:35;;;;;;;2.53;1.15;;;21.20;30.80;;;;;;5070166;28;20032;-76
2021/03/20 13:13:01;;;;;;;2.45;1.33;;;21.30;30.00;;;;;;5061281;28;20082;-76
2021/03/20 13:15:27;;;;;;;1.75;0.88;;;21.40;29.80;;;;;;5053926;28;20476;-76
2021/03/20 13:17:53;;;;;;;1.88;0.88;;;21.40;29.80;;;;;;5060511;28;20025;-77
2021/03/20 13:20:21;;;;;;;4.10;1.17;;;21.50;29.80;;;;;;5061955;28;20090;-76
2021/03/20 13:22:48;;;;;;;2.70;0.90;;;21.60;29.80;;;;;;5063933;28;20048;-76
2021/03/20 13:25:22;;;;;;;2.28;0.95;;;21.60;29.30;;;;;;5061136;28;20033;-77
2021/03/20 13:27:47;;;;;;;2.50;1.10;;;21.50;29.20;;;;;;5066884;28;20071;-77
2021/03/20 13:30:13;;;;;;;2.38;1.05;;;21.40;29.40;;;;;;5059170;28;20033;-78
2021/03/20 13:32:39;;;;;;;3.28;1.10;;;21.30;29.40;;;;;;5064607;28;20434;-78
2021/03/20 13:35:05;;;;;;;4.93;1.17;;;21.30;29.20;;;;;;5066588;28;20105;-76
2021/03/20 13:37:31;;;;;;;2.10;0.85;;;21.20;29.40;;;;;;5064223;28;20078;-77
2021/03/20 13:39:56;;;;;;;4.00;1.40;;;21.20;29.60;;;;;;5061071;28;20025;-77
2021/03/20 13:42:22;;;;;;;2.20;1.00;;;21.20;29.60;;;;;;5083252;28;20409;-76